Time;durP1;ratioP1;P1;durP2;ratioP2;P2;SDS_P1;SDS_P2;PMS_P1;PMS_P2;Temp;Humidity;BMP_temperature;BMP_pressure;BME280_temperature;BME280_humidity;BME280_pressure;Samples;Min_cycle;Max_cycle;Signal;HPM_P1;HPM_P2
2023/12/30 00:01:36;;;;;;;;;;;7.80;99.90;;;;;;5102546;28;19963;-69
2023/12/30 00:04:03;;;;;;;;;;;7.70;99.90;;;;;;5098970;28;20003;-70
2023/12/30 00:06:30;;;;;;;;;;;7.60;99.90;;;;;;5098995;28;19983;-70
2023/12/30 00:08:57;;;;;;;;;;;7.60;99.90;;;;;;5102781;28;20216;-71
2023/12/30 00:11:25;;;;;;;;;;;7.50;99.90;;;;;;5102909;28;20181;-69
2023/12/30 00:13:51;;;;;;;;;;;7.50;99.90;;;;;;5094660;28;20237;-70
2023/12/30 00:16:18;;;;;;;;;;;7.50;99.90;;;;;;5105667;28;19959;-70
2023/12/30 00:18:44;;;;;;;;;;;7.50;99.90;;;;;;5103200;28;19921;-70
2023/12/30 00:21:11;;;;;;;;;;;7.60;99.90;;;;;;5102596;28;19963;-71
2023/12/30 00:23:42;;;;;;;;;;;7.50;99.90;;;;;;5098610;28;19959;-71
2023/12/30 00:26:08;;;;;;;;;;;7.50;99.90;;;;;;5102313;28;19935;-70
2023/12/30 00:28:36;;;;;;;;;;;7.50;99.90;;;;;;5106574;28;19951;-70
2023/12/30 00:31:03;;;;;;;;;;;7.40;99.90;;;;;;5108087;28;19955;-69
2023/12/30 00:33:30;;;;;;;;;;;7.40;99.90;;;;;;5109361;28;19952;-69
2023/12/30 00:35:56;;;;;;;;;;;7.40;99.90;;;;;;5106315;28;20114;-69
2023/12/30 00:38:23;;;;;;;;;;;7.40;99.90;;;;;;5103927;28;19979;-68
2023/12/30 00:40:49;;;;;;;;;;;7.40;99.90;;;;;;5099416;28;19983;-73
2023/12/30 00:43:17;;;;;;;;;;;7.40;99.90;;;;;;5098674;28;19926;-69
2023/12/30 00:45:45;;;;;;;;;;;7.40;99.90;;;;;;5106211;28;19929;-69
2023/12/30 00:48:12;;;;;;;;;;;7.40;99.90;;;;;;5106109;28;20302;-68
2023/12/30 00:50:38;;;;;;;;;;;7.30;99.90;;;;;;5110627;28;19920;-70
2023/12/30 00:53:05;;;;;;;;;;;7.30;99.90;;;;;;5106123;28;20174;-70
2023/12/30 00:55:31;;;;;;;;;;;7.30;99.90;;;;;;5105814;28;19920;-68
2023/12/30 00:57:58;;;;;;;;;;;7.20;99.90;;;;;;5105901;28;19927;-69
2023/12/30 01:00:25;;;;;;;;;;;7.20;99.90;;;;;;5106051;28;20001;-70
2023/12/30 01:02:53;;;;;;;;;;;7.20;99.90;;;;;;5101930;28;20257;-69
2023/12/30 01:05:20;;;;;;;;;;;7.20;99.90;;;;;;5102909;28;19951;-69
2023/12/30 01:07:46;;;;;;;;;;;7.20;99.90;;;;;;5102062;28;20119;-70
2023/12/30 01:10:13;;;;;;;;;;;7.30;99.90;;;;;;5106016;28;19934;-69
2023/12/30 01:12:39;;;;;;;;;;;7.20;99.90;;;;;;5101378;28;19927;-70
2023/12/30 01:15:07;;;;;;;;;;;7.30;99.90;;;;;;5105108;28;19983;-68
2023/12/30 01:17:33;;;;;;;;;;;7.20;99.90;;;;;;5105805;28;19920;-69
2023/12/30 01:20:01;;;;;;;;;;;7.20;99.90;;;;;;5103553;28;19963;-68
2023/12/30 01:22:28;;;;;;;;;;;7.30;99.90;;;;;;5105308;28;19920;-69
2023/12/30 01:24:54;;;;;;;;;;;7.30;99.90;;;;;;5105376;28;19983;-68
2023/12/30 01:27:21;;;;;;;;;;;7.30;99.90;;;;;;5098203;28;19979;-69
2023/12/30 01:29:48;;;;;;;;;;;7.30;99.90;;;;;;5105195;28;19920;-68
2023/12/30 01:32:14;;;;;;;;;;;7.30;99.90;;;;;;5109948;28;19955;-70
2023/12/30 01:34:41;;;;;;;;;;;7.30;99.90;;;;;;5097312;28;20206;-68
2023/12/30 01:37:09;;;;;;;;;;;7.30;99.90;;;;;;5104950;28;19920;-68
2023/12/30 01:39:37;;;;;;;;;;;7.30;99.90;;;;;;5104918;28;19926;-69
2023/12/30 01:42:03;;;;;;;;;;;7.30;99.90;;;;;;5107171;28;19920;-70
2023/12/30 01:44:30;;;;;;;;;;;7.30;99.90;;;;;;5104899;28;20154;-68
2023/12/30 01:46:57;;;;;;;;;;;7.30;99.90;;;;;;5105634;28;19920;-71
2023/12/30 01:49:23;;;;;;;;;;;7.30;99.90;;;;;;5113324;28;19959;-68
2023/12/30 01:51:50;;;;;;;;;;;7.30;99.90;;;;;;5114091;28;19920;-70
2023/12/30 01:54:18;;;;;;;;;;;7.30;99.90;;;;;;5105224;28;19960;-69
2023/12/30 01:56:45;;;;;;;;;;;7.30;99.90;;;;;;5108525;28;19991;-69
2023/12/30 01:59:12;;;;;;;;;;;7.40;99.90;;;;;;5109335;28;19920;-68
2023/12/30 02:01:39;;;;;;;;;;;7.40;99.90;;;;;;5104624;28;19952;-69
2023/12/30 02:04:05;;;;;;;;;;;7.40;99.90;;;;;;5108873;28;20274;-69
2023/12/30 02:06:32;;;;;;;;;;;7.50;99.90;;;;;;5109003;28;19958;-69
2023/12/30 02:08:58;;;;;;;;;;;7.50;99.90;;;;;;5102270;28;19959;-67
2023/12/30 02:11:27;;;;;;;;;;;7.50;99.90;;;;;;5112370;28;20250;-69
2023/12/30 02:13:54;;;;;;;;;;;7.50;99.90;;;;;;5104902;28;20206;-69
2023/12/30 02:16:20;;;;;;;;;;;7.50;99.90;;;;;;5105084;28;20154;-69
2023/12/30 02:18:47;;;;;;;;;;;7.50;99.90;;;;;;5109416;28;20003;-69
2023/12/30 02:21:13;;;;;;;;;;;7.50;99.90;;;;;;5109839;28;20105;-69
2023/12/30 02:23:41;;;;;;;;;;;7.50;99.90;;;;;;5103810;28;19920;-69
2023/12/30 02:26:08;;;;;;;;;;;7.60;99.90;;;;;;5102863;28;19952;-70
2023/12/30 02:28:35;;;;;;;;;;;7.60;99.90;;;;;;5099040;28;19955;-68
2023/12/30 02:31:03;;;;;;;;;;;7.60;99.90;;;;;;5104236;28;19987;-70
2023/12/30 02:33:30;;;;;;;;;;;7.60;99.90;;;;;;5104033;28;20147;-68
2023/12/30 02:35:57;;;;;;;;;;;7.50;99.90;;;;;;5104416;28;19995;-70
2023/12/30 02:38:23;;;;;;;;;;;7.60;99.90;;;;;;5103347;28;19987;-69
2023/12/30 02:40:51;;;;;;;;;;;7.60;99.90;;;;;;5103658;28;19920;-69
2023/12/30 02:43:18;;;;;;;;;;;7.70;99.90;;;;;;5104069;28;20029;-70
2023/12/30 02:45:44;;;;;;;;;;;7.60;99.90;;;;;;5103816;28;20179;-69
2023/12/30 02:48:11;;;;;;;;;;;7.70;99.90;;;;;;5104071;28;19926;-69
2023/12/30 02:50:37;;;;;;;;;;;7.70;99.90;;;;;;5097487;28;19987;-69
2023/12/30 02:53:04;;;;;;;;;;;7.70;99.90;;;;;;5101085;28;19983;-68
2023/12/30 02:55:31;;;;;;;;;;;7.60;99.90;;;;;;5103626;28;19968;-70
2023/12/30 02:57:59;;;;;;;;;;;7.60;99.90;;;;;;5103965;28;19920;-69
2023/12/30 03:00:25;;;;;;;;;;;7.60;99.90;;;;;;5103737;28;19986;-70
2023/12/30 03:02:52;;;;;;;;;;;7.60;99.90;;;;;;5092652;28;19920;-69
2023/12/30 03:05:18;;;;;;;;;;;7.60;99.90;;;;;;5102700;28;19987;-70
2023/12/30 03:07:45;;;;;;;;;;;7.60;99.90;;;;;;5100164;28;19927;-70
2023/12/30 03:10:12;;;;;;;;;;;7.50;99.90;;;;;;5100113;28;19959;-69
2023/12/30 03:12:38;;;;;;;;;;;7.40;99.90;;;;;;5102913;28;19920;-70
2023/12/30 03:15:07;;;;;;;;;;;7.40;99.90;;;;;;5097250;28;19988;-70
2023/12/30 03:17:34;;;;;;;;;;;7.40;99.90;;;;;;5101399;28;19928;-68
2023/12/30 03:20:03;;;;;;;;;;;7.50;99.90;;;;;;5104123;28;19920;-70
2023/12/30 03:22:32;;;;;;;;;;;7.40;99.90;;;;;;5103359;28;19924;-68
2023/12/30 03:24:58;;;;;;;;;;;7.40;99.90;;;;;;5104007;28;19921;-70
2023/12/30 03:27:25;;;;;;;;;;;7.40;99.90;;;;;;5104221;28;20117;-70
2023/12/30 03:29:52;;;;;;;;;;;7.40;99.90;;;;;;5104174;28;19958;-71
2023/12/30 03:32:20;;;;;;;;;;;7.40;99.90;;;;;;5104253;28;20014;-69
2023/12/30 03:34:46;;;;;;;;;;;7.40;99.90;;;;;;5103768;28;20150;-69
2023/12/30 03:37:13;;;;;;;;;;;7.40;99.90;;;;;;5103936;28;19927;-69
2023/12/30 03:39:39;;;;;;;;;;;7.30;99.90;;;;;;5103843;28;19991;-69
2023/12/30 03:42:06;;;;;;;;;;;7.30;99.90;;;;;;5104088;28;19987;-68
2023/12/30 03:44:33;;;;;;;;;;;7.30;99.90;;;;;;5103429;28;19951;-70
2023/12/30 03:47:00;;;;;;;;;;;7.30;99.90;;;;;;5103923;28;19920;-68
2023/12/30 03:49:28;;;;;;;;;;;7.30;99.90;;;;;;5103579;28;20261;-69
2023/12/30 03:51:54;;;;;;;;;;;7.30;99.90;;;;;;5103808;28;19927;-69
2023/12/30 03:54:21;;;;;;;;;;;7.30;99.90;;;;;;5103376;28;19962;-69
2023/12/30 03:56:49;;;;;;;;;;;7.30;99.90;;;;;;5103797;28;19919;-70
2023/12/30 03:59:15;;;;;;;;;;;7.30;99.90;;;;;;5103545;28;19953;-70
2023/12/30 04:01:43;;;;;;;;;;;7.30;99.90;;;;;;5103157;28;20214;-69
2023/12/30 04:04:09;;;;;;;;;;;7.30;99.90;;;;;;5103354;28;19986;-68
2023/12/30 04:06:37;;;;;;;;;;;7.30;99.90;;;;;;5103739;28;19981;-69
2023/12/30 04:09:04;;;;;;;;;;;7.30;99.90;;;;;;5089486;28;20142;-69
2023/12/30 04:11:30;;;;;;;;;;;7.30;99.90;;;;;;5090940;28;19991;-69
2023/12/30 04:13:57;;;;;;;;;;;7.30;99.90;;;;;;5102271;28;19983;-68
2023/12/30 04:16:24;;;;;;;;;;;7.20;99.90;;;;;;5094869;28;19921;-68
2023/12/30 04:18:50;;;;;;;;;;;7.30;99.90;;;;;;5103389;28;19920;-70
2023/12/30 04:21:17;;;;;;;;;;;7.30;99.90;;;;;;5103547;28;20129;-69
2023/12/30 04:23:45;;;;;;;;;;;7.30;99.90;;;;;;5102765;28;21164;-68
2023/12/30 04:26:12;;;;;;;;;;;7.30;99.90;;;;;;5103241;28;19959;-68
2023/12/30 04:28:39;;;;;;;;;;;7.30;99.90;;;;;;5103369;28;19942;-69
2023/12/30 04:31:05;;;;;;;;;;;7.40;99.90;;;;;;5103843;28;19920;-70
2023/12/30 04:33:32;;;;;;;;;;;7.30;99.90;;;;;;5102805;28;19956;-69
2023/12/30 04:35:58;;;;;;;;;;;7.30;99.90;;;;;;5103510;28;19920;-68
2023/12/30 04:38:25;;;;;;;;;;;7.30;99.90;;;;;;5103100;28;19926;-70
2023/12/30 04:40:53;;;;;;;;;;;7.40;99.90;;;;;;5103347;28;19920;-69
2023/12/30 04:43:19;;;;;;;;;;;7.40;99.90;;;;;;5102071;28;20290;-70
2023/12/30 04:45:46;;;;;;;;;;;7.40;99.90;;;;;;5103449;28;19927;-68
2023/12/30 04:48:13;;;;;;;;;;;7.40;99.90;;;;;;5103171;28;20066;-72
2023/12/30 04:50:39;;;;;;;;;;;7.40;99.90;;;;;;5102997;28;20171;-69
2023/12/30 04:53:06;;;;;;;;;;;7.40;99.90;;;;;;5102722;28;19920;-69
2023/12/30 04:55:32;;;;;;;;;;;7.40;99.90;;;;;;5103116;28;19962;-68
2023/12/30 04:58:01;;;;;;;;;;;7.40;99.90;;;;;;5102647;28;20121;-69
2023/12/30 05:00:27;;;;;;;;;;;7.40;99.90;;;;;;5102910;28;19920;-70
2023/12/30 05:02:54;;;;;;;;;;;7.50;99.90;;;;;;5102661;28;19983;-68
2023/12/30 05:05:21;;;;;;;;;;;7.50;99.90;;;;;;5102862;28;20214;-70
2023/12/30 05:07:47;;;;;;;;;;;7.50;99.90;;;;;;5099886;28;19920;-70
2023/12/30 05:10:14;;;;;;;;;;;7.50;99.90;;;;;;5081573;28;20113;-68
2023/12/30 05:12:41;;;;;;;;;;;7.50;99.90;;;;;;5100534;28;19983;-69
2023/12/30 05:15:11;;;;;;;;;;;7.50;99.90;;;;;;5105315;28;19926;-68
2023/12/30 05:17:38;;;;;;;;;;;7.50;99.90;;;;;;5105509;28;19999;-70
2023/12/30 05:20:07;;;;;;;;;;;7.50;99.90;;;;;;5106347;28;19920;-69
2023/12/30 05:22:34;;;;;;;;;;;7.50;99.90;;;;;;5106310;28;19975;-68
2023/12/30 05:25:01;;;;;;;;;;;7.50;99.90;;;;;;5106239;28;19951;-68
2023/12/30 05:27:27;;;;;;;;;;;7.50;99.90;;;;;;5106384;28;19978;-68
2023/12/30 05:29:54;;;;;;;;;;;7.40;99.90;;;;;;5106761;28;19942;-70
2023/12/30 05:32:22;;;;;;;;;;;7.50;99.90;;;;;;5106209;28;19955;-70
2023/12/30 05:34:48;;;;;;;;;;;7.50;99.90;;;;;;5105697;28;19979;-68
2023/12/30 05:37:15;;;;;;;;;;;7.50;99.90;;;;;;5105877;28;20145;-68
2023/12/30 05:39:42;;;;;;;;;;;7.50;99.90;;;;;;5105977;28;20285;-70
2023/12/30 05:42:08;;;;;;;;;;;7.50;99.90;;;;;;5106223;28;19987;-68
2023/12/30 05:44:35;;;;;;;;;;;7.50;99.90;;;;;;5105626;28;19983;-69
2023/12/30 05:47:02;;;;;;;;;;;7.50;99.90;;;;;;5105942;28;19920;-69
2023/12/30 05:49:30;;;;;;;;;;;7.50;99.90;;;;;;5106031;28;19948;-69
2023/12/30 05:51:56;;;;;;;;;;;7.60;99.90;;;;;;5106173;28;19987;-69
2023/12/30 05:54:25;;;;;;;;;;;7.50;99.90;;;;;;5105675;28;19979;-70
2023/12/30 05:56:53;;;;;;;;;;;7.50;99.90;;;;;;5097989;28;19920;-69
2023/12/30 05:59:19;;;;;;;;;;;7.50;99.90;;;;;;5105892;28;19970;-69
2023/12/30 06:01:46;;;;;;;;;;;7.50;99.90;;;;;;5105768;28;20174;-70
2023/12/30 06:04:13;;;;;;;;;;;7.50;99.90;;;;;;5105492;28;19956;-69
2023/12/30 06:06:41;;;;;;;;;;;7.50;99.90;;;;;;5105827;28;19920;-69
2023/12/30 06:09:08;;;;;;;;;;;7.50;99.90;;;;;;5095973;28;19962;-69
2023/12/30 06:11:35;;;;;;;;;;;7.50;99.90;;;;;;5103231;28;19991;-70
2023/12/30 06:14:02;;;;;;;;;;;7.50;99.90;;;;;;5092202;28;19943;-69
2023/12/30 06:16:28;;;;;;;;;;;7.50;99.90;;;;;;5101192;28;19926;-69
2023/12/30 06:18:55;;;;;;;;;;;7.50;99.90;;;;;;5104570;28;19950;-68
2023/12/30 06:21:21;;;;;;;;;;;7.50;99.90;;;;;;5105235;28;19926;-69
2023/12/30 06:23:49;;;;;;;;;;;7.50;99.90;;;;;;5104936;28;19951;-70
2023/12/30 06:26:16;;;;;;;;;;;7.50;99.90;;;;;;5105481;28;19948;-69
2023/12/30 06:28:43;;;;;;;;;;;7.50;99.90;;;;;;5104904;28;19927;-70
2023/12/30 06:31:09;;;;;;;;;;;7.50;99.90;;;;;;5103595;28;19951;-70
2023/12/30 06:33:36;;;;;;;;;;;7.50;99.90;;;;;;5104617;28;19983;-69
2023/12/30 06:36:03;;;;;;;;;;;7.50;99.90;;;;;;5105057;28;19958;-70
2023/12/30 06:38:30;;;;;;;;;;;7.50;99.90;;;;;;5104995;28;19966;-70
2023/12/30 06:40:58;;;;;;;;;;;7.50;99.90;;;;;;5105135;28;19983;-69
2023/12/30 06:43:25;;;;;;;;;;;7.50;99.90;;;;;;5103967;28;19994;-68
2023/12/30 06:45:51;;;;;;;;;;;7.50;99.90;;;;;;5104908;28;19920;-69
2023/12/30 06:48:20;;;;;;;;;;;7.50;99.90;;;;;;5104885;28;19951;-68
2023/12/30 06:50:46;;;;;;;;;;;7.50;99.90;;;;;;5104715;28;19928;-70
2023/12/30 06:53:13;;;;;;;;;;;7.60;99.90;;;;;;5104305;28;19927;-69
2023/12/30 06:55:40;;;;;;;;;;;7.50;99.90;;;;;;5104394;28;19987;-69
2023/12/30 06:58:08;;;;;;;;;;;7.60;99.90;;;;;;5104558;28;19987;-69
2023/12/30 07:00:34;;;;;;;;;;;7.60;99.90;;;;;;5104492;28;19924;-69
2023/12/30 07:03:01;;;;;;;;;;;7.60;99.90;;;;;;5104263;28;19956;-68
2023/12/30 07:05:28;;;;;;;;;;;7.60;99.90;;;;;;5104366;28;20377;-70
2023/12/30 07:07:54;;;;;;;;;;;7.50;99.90;;;;;;5104311;28;19920;-69
2023/12/30 07:10:21;;;;;;;;;;;7.60;99.90;;;;;;5103688;28;19920;-69
2023/12/30 07:12:47;;;;;;;;;;;7.60;99.90;;;;;;5102145;28;20222;-70
2023/12/30 07:15:15;;;;;;;;;;;7.60;99.90;;;;;;5103061;28;19988;-69
2023/12/30 07:17:42;;;;;;;;;;;7.60;99.90;;;;;;5103155;28;19990;-68
2023/12/30 07:20:11;;;;;;;;;;;7.50;99.90;;;;;;5103510;28;20291;-69
2023/12/30 07:22:38;;;;;;;;;;;7.50;99.90;;;;;;5104267;28;19924;-69
2023/12/30 07:25:05;;;;;;;;;;;7.50;99.90;;;;;;5103621;28;19924;-68
2023/12/30 07:27:31;;;;;;;;;;;7.50;99.90;;;;;;5104239;28;19920;-70
2023/12/30 07:29:58;;;;;;;;;;;7.50;99.90;;;;;;5103709;28;20210;-69
2023/12/30 07:32:26;;;;;;;;;;;7.50;99.90;;;;;;5086665;28;19950;-71
2023/12/30 07:34:53;;;;;;;;;;;7.50;99.90;;;;;;5083801;28;20149;-68
2023/12/30 07:37:19;;;;;;;;;;;7.60;99.90;;;;;;5084350;28;19951;-70
2023/12/30 07:39:46;;;;;;;;;;;7.50;99.90;;;;;;5095561;28;19991;-68
2023/12/30 07:42:13;;;;;;;;;;;7.50;99.90;;;;;;5103988;28;19983;-70
2023/12/30 07:44:39;;;;;;;;;;;7.50;99.90;;;;;;5103648;28;19924;-69
2023/12/30 07:47:06;;;;;;;;;;;7.50;99.90;;;;;;5103786;28;19951;-69
2023/12/30 07:49:35;;;;;;;;;;;7.50;99.90;;;;;;5103430;28;19927;-69
2023/12/30 07:52:02;;;;;;;;;;;7.50;99.90;;;;;;5103767;28;19920;-68
2023/12/30 07:54:28;;;;;;;;;;;7.60;99.90;;;;;;5102868;28;20224;-70
2023/12/30 07:56:55;;;;;;;;;;;7.60;99.90;;;;;;5103856;28;19927;-68
2023/12/30 07:59:21;;;;;;;;;;;7.60;99.90;;;;;;5103612;28;19966;-70
2023/12/30 08:01:48;;;;;;;;;;;7.60;99.90;;;;;;5095352;28;19980;-70
2023/12/30 08:04:15;;;;;;;;;;;7.60;99.90;;;;;;5103304;28;20188;-69
2023/12/30 08:06:43;;;;;;;;;;;7.60;99.90;;;;;;5103237;28;19982;-70
2023/12/30 08:09:11;;;;;;;;;;;7.60;99.90;;;;;;5101919;28;19962;-68
2023/12/30 08:11:37;;;;;;;;;;;7.60;99.90;;;;;;5102970;28;19928;-70
2023/12/30 08:14:04;;;;;;;;;;;7.70;99.90;;;;;;5102062;28;19979;-70
2023/12/30 08:16:31;;;;;;;;;;;7.60;99.90;;;;;;5093868;28;19920;-71
2023/12/30 08:18:58;;;;;;;;;;;7.70;99.90;;;;;;5088250;28;19979;-68
2023/12/30 08:21:25;;;;;;;;;;;7.60;99.90;;;;;;5103304;28;19927;-69
2023/12/30 08:23:54;;;;;;;;;;;7.70;99.90;;;;;;5102981;28;19976;-68
2023/12/30 08:26:21;;;;;;;;;;;7.70;99.90;;;;;;5103527;28;20083;-71
2023/12/30 08:28:47;;;;;;;;;;;7.70;99.90;;;;;;5103062;28;19928;-71
2023/12/30 08:31:14;;;;;;;;;;;7.70;99.90;;;;;;5096790;28;19920;-71
2023/12/30 08:33:41;;;;;;;;;;;7.70;99.90;;;;;;5101517;28;20233;-71
2023/12/30 08:36:07;;;;;;;;;;;7.80;99.90;;;;;;5103450;28;19955;-72
2023/12/30 08:38:34;;;;;;;;;;;7.80;99.90;;;;;;5102924;28;19983;-72
2023/12/30 08:41:02;;;;;;;;;;;7.80;99.90;;;;;;5103311;28;19963;-70
2023/12/30 08:43:29;;;;;;;;;;;7.80;99.90;;;;;;5102493;28;19983;-68
2023/12/30 08:45:56;;;;;;;;;;;7.80;99.90;;;;;;5103189;28;19924;-69
2023/12/30 08:48:22;;;;;;;;;;;7.90;99.90;;;;;;5104506;28;19924;-70
2023/12/30 08:50:49;;;;;;;;;;;7.80;99.90;;;;;;5107073;28;20233;-69
2023/12/30 08:53:18;;;;;;;;;;;7.80;99.90;;;;;;5106719;28;19924;-69
2023/12/30 08:55:44;;;;;;;;;;;7.80;99.90;;;;;;5107103;28;19974;-69
2023/12/30 08:58:12;;;;;;;;;;;7.90;99.90;;;;;;5106948;28;19971;-68
2023/12/30 09:00:41;;;;;;;;;;;7.90;99.90;;;;;;5107039;28;19984;-69
2023/12/30 09:03:07;;;;;;;;;;;7.90;99.90;;;;;;5106620;28;19928;-69
2023/12/30 09:05:34;;;;;;;;;;;7.90;99.90;;;;;;5106771;28;19920;-70
2023/12/30 09:08:03;;;;;;;;;;;7.90;99.90;;;;;;5105861;28;19920;-69
2023/12/30 09:10:30;;;;;;;;;;;7.90;99.90;;;;;;5105109;28;19926;-68
2023/12/30 09:12:57;;;;;;;;;;;7.90;99.90;;;;;;5104409;28;19983;-70
2023/12/30 09:15:25;;;;;;;;;;;8.00;99.90;;;;;;5105741;28;19956;-70
2023/12/30 09:17:52;;;;;;;;;;;8.00;99.90;;;;;;5098335;28;19983;-70
2023/12/30 09:20:19;;;;;;;;;;;8.10;99.90;;;;;;5106229;28;19920;-69
2023/12/30 09:22:45;;;;;;;;;;;8.00;99.90;;;;;;5106162;28;20240;-69
2023/12/30 09:25:12;;;;;;;;;;;8.10;99.90;;;;;;5106151;28;19983;-69
2023/12/30 09:27:38;;;;;;;;;;;8.10;99.90;;;;;;5106240;28;20214;-68
2023/12/30 09:30:06;;;;;;;;;;;8.10;99.90;;;;;;5106421;28;19991;-69
2023/12/30 09:32:34;;;;;;;;;;;8.10;99.90;;;;;;5106219;28;19920;-70
2023/12/30 09:35:02;;;;;;;;;;;8.10;99.90;;;;;;5105604;28;19963;-69
2023/12/30 09:37:28;;;;;;;;;;;8.10;99.90;;;;;;5106153;28;20140;-69
2023/12/30 09:39:55;;;;;;;;;;;8.20;99.90;;;;;;5105701;28;19995;-69
2023/12/30 09:42:22;;;;;;;;;;;8.20;99.90;;;;;;5106098;28;19951;-70
2023/12/30 09:44:49;;;;;;;;;;;8.30;99.90;;;;;;5094321;28;19980;-70
2023/12/30 09:47:16;;;;;;;;;;;8.20;99.90;;;;;;5086329;28;19962;-69
2023/12/30 09:49:45;;;;;;;;;;;8.30;99.90;;;;;;5086611;28;19952;-69
2023/12/30 09:52:11;;;;;;;;;;;8.30;99.90;;;;;;5086503;28;19983;-70
2023/12/30 09:54:39;;;;;;;;;;;8.30;99.90;;;;;;5103555;28;19955;-70
2023/12/30 09:57:06;;;;;;;;;;;8.40;99.90;;;;;;5106001;28;19926;-70
2023/12/30 09:59:35;;;;;;;;;;;8.40;99.90;;;;;;5096842;28;20286;-69
2023/12/30 10:02:03;;;;;;;;;;;8.40;99.90;;;;;;5105968;28;19920;-67
2023/12/30 10:04:30;;;;;;;;;;;8.50;99.90;;;;;;5105213;28;19959;-72
2023/12/30 10:06:58;;;;;;;;;;;8.50;99.90;;;;;;5105846;28;19920;-70
2023/12/30 10:09:24;;;;;;;;;;;8.50;99.90;;;;;;5105769;28;20324;-70
2023/12/30 10:11:51;;;;;;;;;;;8.50;99.90;;;;;;5103513;28;19979;-70
2023/12/30 10:14:18;;;;;;;;;;;8.50;99.90;;;;;;5104276;28;19999;-69
2023/12/30 10:16:44;;;;;;;;;;;8.50;99.90;;;;;;5104724;28;19983;-74
2023/12/30 10:19:11;;;;;;;;;;;8.60;99.90;;;;;;5105358;28;19920;-69
2023/12/30 10:21:38;;;;;;;;;;;8.60;99.90;;;;;;5105376;28;19920;-69
2023/12/30 10:24:06;;;;;;;;;;;8.60;99.90;;;;;;5104735;28;20256;-70
2023/12/30 10:26:33;;;;;;;;;;;8.60;99.90;;;;;;5105413;28;19951;-69
2023/12/30 10:29:00;;;;;;;;;;;8.60;99.90;;;;;;5104927;28;19920;-69
2023/12/30 10:31:27;;;;;;;;;;;8.60;99.90;;;;;;5095592;28;19951;-69
2023/12/30 10:33:54;;;;;;;;;;;8.60;99.90;;;;;;5092783;28;20206;-68
2023/12/30 10:36:20;;;;;;;;;;;8.70;99.90;;;;;;5100804;28;19931;-68
2023/12/30 10:38:47;;;;;;;;;;;8.60;99.90;;;;;;5104594;28;20003;-69
2023/12/30 10:41:15;;;;;;;;;;;8.60;99.90;;;;;;5105211;28;19952;-69
2023/12/30 10:43:42;;;;;;;;;;;8.50;99.90;;;;;;5102460;28;20177;-68
2023/12/30 10:46:10;;;;;;;;;;;8.50;99.90;;;;;;5093603;28;19952;-69
2023/12/30 10:48:40;;;;;;;;;;;8.50;99.90;;;;;;5085521;28;19963;-69
2023/12/30 10:51:09;;;;;;;;;;;8.50;99.90;;;;;;5085132;28;19956;-68
2023/12/30 10:53:38;;;;;;;;;;;8.60;99.90;;;;;;5102421;28;19929;-69
2023/12/30 10:56:07;;;;;;;;;;;8.60;99.90;;;;;;5104860;28;20160;-70
2023/12/30 10:58:35;;;;;;;;;;;8.60;99.90;;;;;;5096496;28;19959;-70
2023/12/30 11:01:03;;;;;;;;;;;8.60;99.90;;;;;;5104878;28;19974;-69
2023/12/30 11:03:31;;;;;;;;;;;8.60;99.90;;;;;;5103794;28;19955;-69
2023/12/30 11:06:01;;;;;;;;;;;8.60;99.90;;;;;;5104553;28;19927;-69
2023/12/30 11:08:28;;;;;;;;;;;8.80;99.90;;;;;;5104111;28;20229;-69
2023/12/30 11:10:58;;;;;;;;;;;8.80;99.90;;;;;;5103782;28;19961;-69
2023/12/30 11:13:24;;;;;;;;;;;8.80;99.90;;;;;;5103870;28;19958;-70
2023/12/30 11:15:52;;;;;;;;;;;8.90;99.90;;;;;;5104619;28;19952;-70
2023/12/30 11:18:41;;;;;;;;;;;9.00;99.90;;;;;;5104024;28;19920;-70
2023/12/30 11:21:08;;;;;;;;;;;9.10;99.90;;;;;;5098303;28;19983;-69
2023/12/30 11:23:35;;;;;;;;;;;9.20;99.90;;;;;;5103468;28;19920;-69
2023/12/30 11:26:04;;;;;;;;;;;9.20;99.90;;;;;;5104047;28;19983;-69
2023/12/30 11:28:33;;;;;;;;;;;9.10;99.90;;;;;;5104176;28;19987;-69
2023/12/30 11:31:01;;;;;;;;;;;9.10;99.90;;;;;;5104253;28;19996;-71
2023/12/30 11:33:28;;;;;;;;;;;9.10;99.90;;;;;;5103521;28;19920;-69
2023/12/30 11:35:55;;;;;;;;;;;9.10;99.90;;;;;;5104188;28;19963;-69
2023/12/30 11:38:24;;;;;;;;;;;9.10;99.90;;;;;;5103578;28;20210;-69
2023/12/30 11:40:51;;;;;;;;;;;9.10;99.90;;;;;;5101929;28;19924;-71
2023/12/30 11:43:18;;;;;;;;;;;9.10;99.90;;;;;;5099076;28;19920;-69
2023/12/30 11:45:45;;;;;;;;;;;9.10;99.90;;;;;;5103942;28;19966;-70
2023/12/30 11:48:14;;;;;;;;;;;9.10;99.90;;;;;;5103824;28;19991;-70
2023/12/30 11:50:41;;;;;;;;;;;9.10;99.90;;;;;;5104039;28;20122;-69
2023/12/30 11:53:08;;;;;;;;;;;9.10;99.90;;;;;;5103467;28;20082;-71
2023/12/30 11:55:34;;;;;;;;;;;9.10;99.90;;;;;;5103795;28;19955;-69
2023/12/30 11:58:02;;;;;;;;;;;9.10;99.90;;;;;;5103182;28;20109;-70
2023/12/30 12:00:28;;;;;;;;;;;9.20;99.90;;;;;;5103483;28;19920;-71
2023/12/30 12:02:56;;;;;;;;;;;9.20;99.90;;;;;;5102615;28;19943;-71
2023/12/30 12:05:24;;;;;;;;;;;9.40;99.90;;;;;;5103739;28;19977;-71
2023/12/30 12:07:50;;;;;;;;;;;9.40;99.90;;;;;;5103099;28;20261;-69
2023/12/30 12:10:17;;;;;;;;;;;9.50;99.90;;;;;;5103666;28;19920;-70
2023/12/30 12:12:45;;;;;;;;;;;9.60;99.90;;;;;;5103782;28;19982;-69
2023/12/30 12:15:12;;;;;;;;;;;9.60;99.90;;;;;;5102143;28;20206;-70
2023/12/30 12:17:39;;;;;;;;;;;9.60;99.90;;;;;;5103351;28;20276;-71
2023/12/30 12:20:08;;;;;;;;;;;9.60;99.90;;;;;;5102895;28;19927;-69
2023/12/30 12:22:36;;;;;;;;;;;9.60;99.90;;;;;;5107536;28;19927;-71
2023/12/30 12:25:03;;;;;;;;;;;9.50;99.90;;;;;;5109528;28;19962;-72
2023/12/30 12:27:30;;;;;;;;;;;9.60;99.90;;;;;;5110365;28;19920;-69
2023/12/30 12:29:57;;;;;;;;;;;9.50;99.90;;;;;;5109937;28;19966;-69
2023/12/30 12:32:24;;;;;;;;;;;9.50;99.90;;;;;;5109887;28;19956;-69
2023/12/30 12:34:52;;;;;;;;;;;9.40;99.90;;;;;;5109712;28;19959;-69
2023/12/30 12:37:19;;;;;;;;;;;9.40;99.90;;;;;;5110188;28;19920;-69
2023/12/30 12:39:47;;;;;;;;;;;9.40;99.90;;;;;;5110071;28;19986;-70
2023/12/30 12:42:15;;;;;;;;;;;9.40;99.90;;;;;;5110099;28;20178;-70
2023/12/30 12:44:42;;;;;;;;;;;9.30;99.90;;;;;;5109808;28;19956;-68
2023/12/30 12:47:10;;;;;;;;;;;9.30;99.90;;;;;;5108959;28;19928;-69
2023/12/30 12:49:36;;;;;;;;;;;9.30;99.90;;;;;;5105770;28;19975;-69
2023/12/30 12:52:03;;;;;;;;;;;9.20;99.90;;;;;;5109205;28;19963;-69
2023/12/30 12:54:30;;;;;;;;;;;9.30;99.90;;;;;;5103081;28;19955;-70
2023/12/30 12:56:58;;;;;;;;;;;9.30;99.90;;;;;;5109793;28;19920;-70
2023/12/30 12:59:25;;;;;;;;;;;9.40;99.90;;;;;;5108906;28;19959;-70
2023/12/30 13:01:51;;;;;;;;;;;9.40;99.90;;;;;;5108922;28;19923;-70
2023/12/30 13:04:18;;;;;;;;;;;9.50;99.90;;;;;;5108519;28;20095;-70
2023/12/30 13:06:46;;;;;;;;;;;9.60;99.90;;;;;;5107038;28;20148;-69
2023/12/30 13:09:30;;;;;;;;;;;9.70;99.90;;;;;;5108979;28;19955;-70
2023/12/30 13:11:59;;;;;;;;;;;9.70;99.90;;;;;;5100500;28;20218;-69
2023/12/30 13:14:27;;;;;;;;;;;9.80;99.90;;;;;;5107027;28;19920;-69
2023/12/30 13:16:54;;;;;;;;;;;9.90;99.90;;;;;;5098298;28;19920;-69
2023/12/30 13:19:20;;;;;;;;;;;9.90;99.90;;;;;;5109162;28;20188;-69
2023/12/30 13:21:48;;;;;;;;;;;9.90;99.90;;;;;;5109190;28;19956;-70
2023/12/30 13:24:15;;;;;;;;;;;9.90;99.90;;;;;;5108161;28;20238;-70
2023/12/30 13:26:43;;;;;;;;;;;9.80;99.90;;;;;;5108272;28;19920;-70
2023/12/30 13:29:11;;;;;;;;;;;9.80;99.90;;;;;;5105752;28;19956;-69
2023/12/30 13:31:37;;;;;;;;;;;9.70;99.90;;;;;;5107290;28;19958;-70
2023/12/30 13:34:05;;;;;;;;;;;9.60;99.90;;;;;;5101014;28;20249;-69
2023/12/30 13:36:35;;;;;;;;;;;9.60;99.90;;;;;;5105105;28;20344;-69
2023/12/30 13:39:05;;;;;;;;;;;9.50;99.90;;;;;;5105431;28;19919;-68
2023/12/30 13:41:32;;;;;;;;;;;9.50;99.90;;;;;;5103018;28;19981;-69
2023/12/30 13:43:59;;;;;;;;;;;9.50;99.90;;;;;;5098811;28;19979;-69
2023/12/30 13:46:40;;;;;;;;;;;9.40;99.90;;;;;;5104152;28;19920;-68
2023/12/30 13:51:49;;;;;;;;;;;9.40;99.90;;;;;;5082766;28;20095;-69
2023/12/30 13:54:19;;;;;;;;;;;9.40;99.90;;;;;;5102870;28;20269;-70
2023/12/30 13:56:49;;;;;;;;;;;9.30;99.90;;;;;;5103069;28;19942;-70
2023/12/30 13:59:18;;;;;;;;;;;9.30;99.90;;;;;;5101670;28;19920;-68
2023/12/30 14:01:46;;;;;;;;;;;9.30;99.90;;;;;;5105002;28;19987;-70
2023/12/30 14:04:16;;;;;;;;;;;9.40;99.90;;;;;;5102309;28;19966;-69
2023/12/30 14:06:43;;;;;;;;;;;9.30;99.90;;;;;;5106430;28;19987;-68
2023/12/30 14:09:24;;;;;;;;;;;9.40;99.90;;;;;;5105777;28;20152;-69
2023/12/30 14:11:55;;;;;;;;;;;9.30;99.90;;;;;;5105217;28;19950;-69
2023/12/30 14:14:21;;;;;;;;;;;9.40;99.90;;;;;;5104623;28;19979;-69
2023/12/30 14:16:49;;;;;;;;;;;9.30;99.90;;;;;;5104527;28;19920;-68
2023/12/30 14:19:16;;;;;;;;;;;9.30;99.90;;;;;;5107194;28;19967;-70
2023/12/30 14:21:43;;;;;;;;;;;9.30;99.90;;;;;;5104323;28;19933;-69
2023/12/30 14:24:11;;;;;;;;;;;9.40;99.90;;;;;;5104152;28;19983;-70
2023/12/30 14:26:38;;;;;;;;;;;9.30;99.90;;;;;;5104051;28;19982;-69
2023/12/30 14:29:04;;;;;;;;;;;9.30;99.90;;;;;;5104254;28;19987;-68
2023/12/30 14:31:31;;;;;;;;;;;9.20;99.90;;;;;;5104256;28;20192;-69
2023/12/30 14:33:59;;;;;;;;;;;9.20;99.90;;;;;;5109536;28;19927;-70